Time;durP1;ratioP1;P1;durP2;ratioP2;P2;SDS_P1;SDS_P2;PMS_P1;PMS_P2;Temp;Humidity;BMP_temperature;BMP_pressure;BME280_temperature;BME280_humidity;BME280_pressure;Samples;Min_cycle;Max_cycle;Signal;HPM_P1;HPM_P2
2022/07/12 00:01:17;;;;;;;6.45;3.55;;;;;;;17.74;79.29;98404.22;4995095;28;20062;-75
2022/07/12 00:03:42;;;;;;;4.90;3.30;;;;;;;17.67;80.24;98403.13;4977216;28;20034;-76
2022/07/12 00:06:07;;;;;;;6.40;3.60;;;;;;;17.52;81.42;98407.19;4994430;28;20026;-76
2022/07/12 00:08:32;;;;;;;6.88;3.25;;;;;;;17.51;81.76;98416.66;4994581;28;20023;-75
2022/07/12 00:10:58;;;;;;;5.68;3.45;;;;;;;17.56;82.28;98419.28;4994538;28;20376;-76
2022/07/12 00:13:23;;;;;;;5.25;3.40;;;;;;;17.54;80.53;98411.25;4994260;28;20022;-76
2022/07/12 00:15:49;;;;;;;6.60;3.38;;;;;;;17.61;80.61;98416.31;4994524;28;20118;-75
2022/07/12 00:18:14;;;;;;;6.68;3.70;;;;;;;17.61;81.10;98421.84;4994218;28;20475;-76
2022/07/12 00:20:39;;;;;;;6.97;3.88;;;;;;;17.57;80.80;98412.59;4994364;28;20053;-75
2022/07/12 00:23:05;;;;;;;7.97;3.65;;;;;;;17.62;80.57;98421.53;4994407;28;20042;-75
2022/07/12 00:25:30;;;;;;;7.25;3.15;;;;;;;17.44;79.87;98421.88;4994148;28;20093;-76
2022/07/12 00:27:56;;;;;;;5.68;3.38;;;;;;;17.18;79.87;98419.13;4993914;28;20076;-76
2022/07/12 00:30:22;;;;;;;3.75;2.95;;;;;;;17.13;80.37;98417.34;4994491;28;20034;-75
2022/07/12 00:32:48;;;;;;;5.78;2.90;;;;;;;17.07;80.80;98415.09;4994333;28;20066;-75
2022/07/12 00:35:14;;;;;;;6.90;3.35;;;;;;;16.92;81.70;98408.09;4993806;28;20530;-76
2022/07/12 00:37:40;;;;;;;7.45;3.33;;;;;;;16.90;82.09;98409.56;4993925;28;20038;-75
2022/07/12 00:40:10;;;;;;;5.88;3.28;;;;;;;16.89;82.32;98411.50;4993926;28;20517;-75
2022/07/12 00:42:36;;;;;;;5.38;3.20;;;;;;;16.90;82.95;98418.66;4993873;28;20064;-75
2022/07/12 00:45:06;;;;;;;4.32;3.20;;;;;;;17.00;81.76;98423.88;4993870;28;20061;-75
2022/07/12 00:47:44;;;;;;;4.97;3.10;;;;;;;17.01;81.19;98419.97;4993542;28;20026;-75
2022/07/12 00:50:16;;;;;;;5.00;2.67;;;;;;;16.97;81.57;98427.28;4976299;28;20022;-75
2022/07/12 00:52:43;;;;;;;5.18;2.85;;;;;;;16.88;81.88;98423.72;4993663;28;20034;-74
2022/07/12 00:55:09;;;;;;;4.85;3.20;;;;;;;16.81;82.45;98428.91;4993621;28;20030;-74
2022/07/12 00:57:36;;;;;;;5.50;3.03;;;;;;;16.84;82.37;98419.16;4993676;28;20061;-75
2022/07/12 01:00:05;;;;;;;4.70;3.05;;;;;;;16.89;82.30;98421.75;4993906;28;20077;-75
2022/07/12 01:02:31;;;;;;;4.13;3.00;;;;;;;16.80;82.63;98426.47;4993537;28;20022;-75
2022/07/12 01:04:59;;;;;;;6.13;3.33;;;;;;;16.83;82.61;98423.88;4993473;28;20387;-75
2022/07/12 01:07:25;;;;;;;4.50;3.05;;;;;;;16.72;82.87;98410.69;4993278;28;20109;-75
2022/07/12 01:09:52;;;;;;;7.38;3.00;;;;;;;16.73;83.02;98407.59;4991993;28;20034;-75
2022/07/12 01:12:18;;;;;;;8.82;4.47;;;;;;;16.79;82.84;98417.34;4993312;28;20038;-75
2022/07/12 01:14:44;;;;;;;5.15;3.15;;;;;;;16.79;82.47;98409.06;4993061;28;20468;-75
2022/07/12 01:17:10;;;;;;;7.10;3.33;;;;;;;16.78;83.30;98418.50;4992973;28;20026;-75
2022/07/12 01:19:37;;;;;;;5.13;2.90;;;;;;;16.67;84.13;98419.94;4993279;28;20085;-75
2022/07/12 01:22:08;;;;;;;5.18;3.20;;;;;;;16.60;84.92;98414.13;4975463;28;20029;-75
2022/07/12 01:24:33;;;;;;;6.40;3.45;;;;;;;16.66;84.76;98406.47;4993017;28;20041;-75
2022/07/12 01:26:59;;;;;;;6.53;3.60;;;;;;;16.75;84.65;98423.88;4992185;28;20038;-75
2022/07/12 01:29:26;;;;;;;6.13;3.50;;;;;;;16.81;84.04;98409.56;4994957;28;20034;-76
2022/07/12 01:31:51;;;;;;;6.10;3.40;;;;;;;16.67;85.36;98403.38;4994618;28;20042;-75
2022/07/12 01:34:17;;;;;;;5.15;3.45;;;;;;;16.56;87.01;98413.13;4996481;28;20046;-74
2022/07/12 01:36:43;;;;;;;3.92;3.05;;;;;;;16.41;89.34;98411.59;4993222;28;20467;-74
2022/07/12 01:39:09;;;;;;;5.45;3.08;;;;;;;16.27;90.55;98410.09;4992980;28;20050;-76
2022/07/12 01:41:35;;;;;;;5.80;3.55;;;;;;;16.23;91.69;98420.16;4992906;28;20026;-74
2022/07/12 01:44:01;;;;;;;4.95;3.28;;;;;;;16.27;91.63;98415.63;4992863;28;20498;-74
2022/07/12 01:46:26;;;;;;;6.50;3.40;;;;;;;16.37;90.73;98421.66;4992807;28;20121;-74
2022/07/12 01:48:51;;;;;;;4.60;3.55;;;;;;;16.19;90.92;98421.94;4992382;28;20034;-75
2022/07/12 01:51:17;;;;;;;6.80;3.88;;;;;;;16.31;90.97;98439.53;4992647;28;20168;-75
2022/07/12 01:53:42;;;;;;;7.13;3.90;;;;;;;16.23;91.29;98436.72;4974880;28;20117;-74
2022/07/12 01:56:08;;;;;;;7.20;3.60;;;;;;;16.08;91.80;98424.16;4992745;28;20037;-74
2022/07/12 01:58:34;;;;;;;5.15;3.60;;;;;;;16.04;92.97;98434.22;4992498;28;20414;-73
2022/07/12 02:01:00;;;;;;;5.45;3.40;;;;;;;15.97;93.87;98434.69;4993087;28;20153;-75
2022/07/12 02:03:26;;;;;;;6.07;3.65;;;;;;;15.86;94.58;98422.31;4992376;28;20037;-74
2022/07/12 02:05:51;;;;;;;5.88;3.63;;;;;;;15.88;94.84;98430.28;4993934;28;20042;-74
2022/07/12 02:08:16;;;;;;;5.15;3.17;;;;;;;15.79;95.68;98424.69;5011335;28;20030;-73
2022/07/12 02:10:45;;;;;;;7.32;3.58;;;;;;;15.92;95.48;98434.81;5014062;28;20485;-75
2022/07/12 02:13:10;;;;;;;5.28;3.58;;;;;;;15.83;95.68;98431.22;5016351;28;20025;-75
2022/07/12 02:15:36;;;;;;;7.82;3.72;;;;;;;15.88;95.98;98435.78;5018123;28;20034;-77
2022/07/12 02:18:02;;;;;;;6.88;3.30;;;;;;;15.72;96.13;98413.34;5012581;28;20523;-75
2022/07/12 02:20:27;;;;;;;5.25;3.05;;;;;;;15.76;96.71;98421.75;5011798;28;20442;-75
2022/07/12 02:22:52;;;;;;;5.57;3.70;;;;;;;15.75;96.95;98420.16;5011824;28;20030;-74
2022/07/12 02:25:18;;;;;;;5.07;3.42;;;;;;;15.81;96.92;98436.25;5011737;28;20379;-75
2022/07/12 02:27:43;;;;;;;4.28;3.47;;;;;;;15.77;97.14;98429.72;5011545;28;20108;-75
2022/07/12 02:30:11;;;;;;;7.30;3.38;;;;;;;15.83;97.15;98442.25;5012185;28;20033;-75
2022/07/12 02:32:37;;;;;;;4.70;3.60;;;;;;;15.75;98.00;98426.50;5011473;28;20030;-75
2022/07/12 02:35:04;;;;;;;8.13;4.30;;;;;;;15.65;98.09;98412.97;5010915;28;20076;-74
2022/07/12 02:37:29;;;;;;;6.20;3.53;;;;;;;15.87;97.33;98421.19;5011538;28;20120;-75
2022/07/12 02:40:53;;;;;;;6.07;3.80;;;;;;;15.93;96.21;98419.09;5011213;28;20558;-75
2022/07/12 02:42:40;;;;;;;5.78;3.80;;;;;;;15.97;96.17;98431.94;5011383;28;20032;-74
2022/07/12 02:45:06;;;;;;;5.32;4.10;;;;;;;15.92;96.34;98425.72;5011222;28;20457;-74
2022/07/12 02:47:31;;;;;;;5.68;3.60;;;;;;;15.80;97.19;98429.09;5011206;28;20030;-74
2022/07/12 02:49:58;;;;;;;8.30;3.55;;;;;;;15.76;97.80;98433.59;4993267;28;20068;-75
2022/07/12 02:52:24;;;;;;;4.47;3.28;;;;;;;15.80;97.54;98440.13;4993559;28;20025;-75
2022/07/12 02:54:49;;;;;;;4.25;3.30;;;;;;;15.76;98.00;98439.13;5011117;28;20107;-74
2022/07/12 02:57:15;;;;;;;5.03;3.42;;;;;;;15.72;99.04;98442.84;5010964;28;20026;-73
2022/07/12 02:59:40;;;;;;;5.72;3.45;;;;;;;15.61;98.71;98436.78;5011183;28;20457;-73
2022/07/12 03:02:06;;;;;;;7.20;3.97;;;;;;;15.55;98.91;98449.06;5011162;28;20453;-76
2022/07/12 03:04:31;;;;;;;6.32;3.30;;;;;;;15.46;99.21;98431.63;4993052;28;20013;-76
2022/07/12 03:06:57;;;;;;;12.63;4.40;;;;;;;15.39;98.91;98428.50;5011002;28;20361;-74
2022/07/12 03:09:22;;;;;;;4.35;3.58;;;;;;;15.52;98.35;98439.50;4993660;28;20026;-76
2022/07/12 03:11:47;;;;;;;5.45;3.70;;;;;;;15.48;98.12;98448.69;4993160;28;20061;-75
2022/07/12 03:14:13;;;;;;;7.97;4.85;;;;;;;15.39;98.76;98439.53;5011212;28;20033;-74
2022/07/12 03:16:39;;;;;;;6.82;3.60;;;;;;;15.43;99.34;98451.56;5010809;28;20049;-74
2022/07/12 03:19:05;;;;;;;4.82;3.40;;;;;;;15.37;99.98;98442.63;4993076;28;20061;-75
2022/07/12 03:21:30;;;;;;;5.28;3.65;;;;;;;15.45;99.66;98447.38;4976954;28;20084;-75
2022/07/12 03:23:55;;;;;;;5.13;3.70;;;;;;;15.27;100.00;98444.81;5010854;28;20037;-76
2022/07/12 03:26:21;;;;;;;4.50;2.97;;;;;;;15.48;100.00;98443.19;5010927;28;20030;-75
2022/07/12 03:28:47;;;;;;;5.32;3.20;;;;;;;15.59;100.00;98454.78;5010854;28;20376;-74
2022/07/12 03:31:12;;;;;;;4.45;3.33;;;;;;;15.54;100.00;98452.94;5011145;28;20065;-75
2022/07/12 03:33:37;;;;;;;5.32;3.80;;;;;;;15.62;99.86;98457.72;5012073;28;20041;-74
2022/07/12 03:36:04;;;;;;;6.07;3.40;;;;;;;15.57;99.11;98443.25;5014578;28;20034;-74
2022/07/12 03:38:30;;;;;;;6.85;3.97;;;;;;;15.63;99.32;98462.09;5014610;28;20052;-75
2022/07/12 03:40:55;;;;;;;8.27;3.70;;;;;;;15.47;100.00;98441.53;5014782;28;20022;-74
2022/07/12 03:43:21;;;;;;;6.30;3.80;;;;;;;15.45;100.00;98460.31;4999584;28;20025;-75
2022/07/12 03:45:46;;;;;;;5.25;3.50;;;;;;;15.42;100.00;98464.53;5024441;28;20026;-76
2022/07/12 03:48:11;;;;;;;9.98;4.10;;;;;;;16.11;97.77;98456.66;5017920;28;20030;-75
2022/07/12 03:50:37;;;;;;;9.18;3.78;;;;;;;17.41;87.46;98456.53;5014594;28;20088;-75
2022/07/12 03:53:02;;;;;;;8.45;3.38;;;;;;;18.58;79.16;98467.06;5014219;28;20080;-75
2022/07/12 03:55:27;;;;;;;6.00;3.70;;;;;;;19.38;73.82;98473.34;5014319;28;20499;-74
2022/07/12 03:57:53;;;;;;;9.40;3.78;;;;;;;20.10;69.68;98478.34;5013804;28;20056;-76
2022/07/12 04:00:18;;;;;;;7.10;3.28;;;;;;;21.10;65.19;98470.16;5014587;28;20034;-75
2022/07/12 04:02:44;;;;;;;4.68;3.20;;;;;;;21.26;63.62;98465.47;5013984;28;20037;-75
2022/07/12 04:05:10;;;;;;;5.72;3.17;;;;;;;22.13;60.04;98475.84;5014148;28;20028;-75
2022/07/12 04:07:36;;;;;;;4.10;3.20;;;;;;;22.08;59.72;98468.59;5014157;28;20080;-76
2022/07/12 04:10:02;;;;;;;6.40;3.20;;;;;;;22.19;58.79;98463.28;5013891;28;20034;-75
2022/07/12 04:12:29;;;;;;;7.93;3.42;;;;;;;21.78;60.00;98470.91;5013897;28;20044;-76
2022/07/12 04:14:55;;;;;;;6.60;3.47;;;;;;;20.51;64.37;98469.03;4996390;28;20483;-75
2022/07/12 04:17:20;;;;;;;6.45;3.67;;;;;;;19.86;68.45;98473.53;5013815;28;20049;-75
2022/07/12 04:19:45;;;;;;;5.28;3.30;;;;;;;19.76;68.81;98468.44;5014291;28;20026;-75
2022/07/12 04:22:11;;;;;;;6.18;3.92;;;;;;;19.66;69.54;98472.47;5014076;28;20121;-74
2022/07/12 04:24:36;;;;;;;6.70;3.78;;;;;;;20.25;67.62;98467.38;4995923;28;20030;-75
2022/07/12 04:27:01;;;;;;;9.40;3.92;;;;;;;21.27;62.92;98471.81;4979773;28;20065;-74
2022/07/12 04:29:27;;;;;;;6.30;3.58;;;;;;;21.64;61.32;98478.06;5013443;28;20030;-75
2022/07/12 04:31:52;;;;;;;6.55;3.70;;;;;;;20.76;63.64;98482.59;5013809;28;20360;-74
2022/07/12 04:34:17;;;;;;;5.53;3.58;;;;;;;19.78;67.74;98480.00;5013311;28;20491;-75
2022/07/12 04:36:47;;;;;;;7.35;4.00;;;;;;;19.15;71.73;98476.47;5013764;28;20441;-75
2022/07/12 04:39:13;;;;;;;5.90;3.67;;;;;;;18.62;74.01;98479.13;5013729;28;20021;-75
2022/07/12 04:41:38;;;;;;;5.85;3.20;;;;;;;19.68;70.13;98483.19;5013539;28;20026;-74
2022/07/12 04:44:05;;;;;;;7.35;3.72;;;;;;;19.69;68.70;98479.28;4995841;28;20180;-74
2022/07/12 04:46:30;;;;;;;5.35;3.92;;;;;;;18.66;73.08;98480.09;5013082;28;20042;-74
2022/07/12 04:48:56;;;;;;;10.10;3.67;;;;;;;18.36;75.55;98481.16;5013258;28;20049;-75
2022/07/12 04:51:21;;;;;;;5.63;3.65;;;;;;;17.96;77.78;98475.97;5013390;28;20486;-74
2022/07/12 04:53:46;;;;;;;7.38;3.88;;;;;;;17.54;79.88;98485.16;5013436;28;20041;-76
2022/07/12 04:56:12;;;;;;;5.65;3.60;;;;;;;17.51;81.14;98483.06;4995665;28;20522;-74
2022/07/12 04:58:37;;;;;;;7.72;3.75;;;;;;;17.88;79.67;98489.84;5013305;28;20034;-75
2022/07/12 05:01:02;;;;;;;8.13;3.45;;;;;;;18.45;76.87;98490.28;5013733;28;20112;-74
2022/07/12 05:03:29;;;;;;;4.88;3.65;;;;;;;18.52;76.22;98496.94;5013380;28;20716;-74
2022/07/12 05:05:54;;;;;;;6.15;3.50;;;;;;;18.31;77.00;98492.44;5013174;28;20125;-75
2022/07/12 05:08:20;;;;;;;5.13;3.55;;;;;;;18.12;78.54;98490.91;5013173;28;20495;-77
2022/07/12 05:10:45;;;;;;;9.15;3.00;;;;;;;18.16;77.94;98489.09;5013086;28;20454;-74
2022/07/12 05:13:11;;;;;;;4.88;3.50;;;;;;;17.95;78.47;98493.72;5013097;28;20383;-75
2022/07/12 05:15:36;;;;;;;4.88;4.03;;;;;;;17.73;79.94;98491.16;5012876;28;20037;-74
2022/07/12 05:18:01;;;;;;;5.80;3.20;;;;;;;17.99;79.38;98491.09;4995283;28;20065;-76
2022/07/12 05:20:27;;;;;;;5.22;3.38;;;;;;;18.16;78.22;98489.09;5013027;28;21106;-75
2022/07/12 05:22:53;;;;;;;9.25;3.80;;;;;;;18.13;78.52;98497.25;5007228;28;20030;-76
2022/07/12 05:25:19;;;;;;;6.68;3.20;;;;;;;18.40;77.00;98494.03;4997429;28;20443;-75
2022/07/12 05:27:45;;;;;;;6.55;2.92;;;;;;;18.39;76.75;98494.34;4994948;28;20033;-75
2022/07/12 05:30:10;;;;;;;6.07;3.20;;;;;;;18.37;76.94;98502.19;5012556;28;20030;-75
2022/07/12 05:32:35;;;;;;;6.32;3.75;;;;;;;18.45;76.15;98490.28;5012809;28;20068;-74
2022/07/12 05:35:01;;;;;;;6.82;3.63;;;;;;;18.42;76.44;98497.28;5012237;28;20088;-76
2022/07/12 05:37:26;;;;;;;6.18;3.47;;;;;;;18.33;77.82;98481.84;4994903;28;20022;-74
2022/07/12 05:39:52;;;;;;;4.20;3.15;;;;;;;18.54;76.21;98494.63;5012880;28;20037;-76
2022/07/12 05:42:18;;;;;;;4.32;3.13;;;;;;;18.69;74.90;98493.28;4994452;28;20044;-82
2022/07/12 05:44:43;;;;;;;5.78;3.47;;;;;;;18.94;74.47;98502.56;4997611;28;20089;-76
2022/07/12 05:47:09;;;;;;;9.20;3.90;;;;;;;19.01;73.02;98502.84;4992678;28;20022;-73
2022/07/12 05:49:34;;;;;;;8.60;3.38;;;;;;;19.23;72.24;98503.31;4992665;28;20030;-74
2022/07/12 05:54:43;;;;;;;5.65;3.58;;;;;;;19.10;71.23;98498.88;5006332;28;20038;-83
2022/07/12 05:57:08;;;;;;;6.78;3.38;;;;;;;19.48;70.97;98492.41;5004811;28;20022;-78
2022/07/12 05:59:37;;;;;;;11.90;3.42;;;;;;;19.26;70.50;98499.88;5003343;28;20033;-77
2022/07/12 06:02:04;;;;;;;9.52;3.20;;;;;;;19.49;69.54;98503.13;4994884;28;20113;-80
2022/07/12 06:04:30;;;;;;;7.13;4.03;;;;;;;19.52;69.53;98496.91;4997815;28;20105;-77
2022/07/12 06:06:56;;;;;;;7.60;4.20;;;;;;;19.92;67.59;98507.47;4992514;28;20105;-81
2022/07/12 06:09:21;;;;;;;5.95;3.75;;;;;;;20.03;67.08;98512.25;4993210;28;20080;-80
2022/07/12 06:11:46;;;;;;;11.05;4.10;;;;;;;20.38;65.55;98511.88;4992303;28;20478;-77
2022/07/12 06:14:12;;;;;;;11.00;4.35;;;;;;;20.61;64.46;98511.06;4994125;28;20117;-77
2022/07/12 06:16:37;;;;;;;13.00;3.97;;;;;;;20.86;63.87;98514.69;4992677;28;20036;-78
2022/07/12 06:19:02;;;;;;;7.18;3.70;;;;;;;21.10;62.77;98523.00;5011646;28;20037;-78
2022/07/12 06:21:28;;;;;;;9.10;3.83;;;;;;;21.05;62.29;98520.41;4994127;28;20042;-82
2022/07/12 06:23:53;;;;;;;6.45;3.67;;;;;;;21.82;60.00;98515.59;5013075;28;20044;-79
2022/07/12 06:26:18;;;;;;;6.85;4.00;;;;;;;21.87;58.95;98506.97;5016471;28;20018;-76
2022/07/12 06:28:44;;;;;;;5.80;3.60;;;;;;;21.37;60.28;98499.16;5010804;28;20398;-78
2022/07/12 06:31:09;;;;;;;5.18;3.22;;;;;;;21.20;60.96;98511.41;4976152;28;20027;-79
2022/07/12 06:33:35;;;;;;;6.80;3.42;;;;;;;21.14;61.22;98504.47;4991929;28;20088;-79
2022/07/12 06:36:00;;;;;;;5.72;3.45;;;;;;;21.52;60.09;98497.63;4992467;28;20399;-79
2022/07/12 06:38:25;;;;;;;9.70;4.03;;;;;;;21.08;61.37;98505.81;4992971;28;20076;-78
2022/07/12 06:40:51;;;;;;;8.02;3.63;;;;;;;21.38;60.16;98511.13;4998846;28;20065;-81
2022/07/12 06:43:16;;;;;;;10.55;3.83;;;;;;;21.31;60.43;98506.16;5001854;28;20479;-80
2022/07/12 06:45:41;;;;;;;10.40;5.80;;;;;;;21.36;59.88;98506.69;5001646;28;20026;-80
2022/07/12 06:48:07;;;;;;;9.75;5.90;;;;;;;21.41;58.63;98511.22;4993805;28;20030;-80
2022/07/12 06:50:33;;;;;;;22.90;6.45;;;;;;;21.51;58.46;98516.31;4992702;28;20471;-79
2022/07/12 06:52:58;;;;;;;10.43;5.00;;;;;;;21.90;57.37;98511.84;4992206;28;20369;-78
2022/07/12 06:55:24;;;;;;;12.57;6.25;;;;;;;22.21;56.62;98517.47;4992013;28;20034;-79
2022/07/12 06:57:49;;;;;;;7.22;4.47;;;;;;;23.03;54.29;98509.19;4991974;28;20061;-81
2022/07/12 07:00:15;;;;;;;8.15;5.05;;;;;;;23.02;54.25;98512.38;4992205;28;20034;-78
2022/07/12 07:02:40;;;;;;;10.73;4.55;;;;;;;23.32;52.80;98508.69;4975284;28;20510;-78
2022/07/12 07:05:06;;;;;;;8.60;5.03;;;;;;;23.16;53.03;98507.91;4993354;28;20487;-79
2022/07/12 07:07:32;;;;;;;7.88;5.18;;;;;;;22.62;54.03;98504.19;4975890;28;20027;-80
2022/07/12 07:09:57;;;;;;;7.75;4.80;;;;;;;22.66;54.79;98500.34;4993441;28;20018;-81
2022/07/12 07:12:22;;;;;;;6.88;4.22;;;;;;;22.98;53.38;98498.31;4994123;28;20483;-82
2022/07/12 07:14:48;;;;;;;8.57;4.68;;;;;;;23.35;52.90;98499.56;4997804;28;20561;-84
2022/07/12 07:17:19;;;;;;;7.22;4.13;;;;;;;23.10;52.63;98497.38;5014255;28;20022;-86
2022/07/12 07:19:47;;;;;;;10.25;4.63;;;;;;;23.65;52.17;98497.03;5024476;28;20041;-80
2022/07/12 07:22:13;;;;;;;9.65;4.68;;;;;;;23.88;50.81;98503.47;4999730;28;20022;-78
2022/07/12 07:24:39;;;;;;;7.30;4.63;;;;;;;24.24;50.14;98495.81;5010195;28;20064;-79
2022/07/12 07:27:05;;;;;;;5.65;3.20;;;;;;;24.06;48.43;98498.22;5016738;28;20151;-82
2022/07/12 07:32:15;;;;;;;4.13;2.85;;;;;;;24.72;45.61;98506.22;5017756;28;20053;-82
2022/07/12 07:34:41;;;;;;;6.07;3.25;;;;;;;25.20;44.90;98504.59;5013894;28;20410;-81
2022/07/12 07:37:07;;;;;;;5.40;3.17;;;;;;;24.79;44.78;98499.94;5015533;28;20022;-81
2022/07/12 07:39:33;;;;;;;5.70;3.15;;;;;;;24.89;44.17;98496.53;4997510;28;20029;-81
2022/07/12 07:41:58;;;;;;;6.85;2.72;;;;;;;25.39;44.33;98489.66;5014059;28;20030;-79
2022/07/12 07:44:24;;;;;;;4.63;2.60;;;;;;;26.19;42.53;98491.84;5013056;28;20475;-80
2022/07/12 07:46:49;;;;;;;4.95;2.70;;;;;;;26.46;41.17;98498.94;5010699;28;20085;-80
2022/07/12 07:49:14;;;;;;;5.20;2.80;;;;;;;25.96;44.04;98494.81;5013101;28;20048;-79
2022/07/12 07:51:40;;;;;;;6.32;2.78;;;;;;;25.26;44.99;98502.28;5021870;28;20423;-82
2022/07/12 07:54:05;;;;;;;3.70;2.67;;;;;;;25.07;44.85;98500.41;5025729;28;20045;-84
2022/07/12 07:56:31;;;;;;;4.05;2.90;;;;;;;25.61;45.87;98485.16;5027611;28;20059;-82
2022/07/12 07:58:56;;;;;;;7.15;2.95;;;;;;;25.16;46.58;98498.13;5022163;28;20034;-82
2022/07/12 08:01:42;;;;;;;6.32;2.65;;;;;;;26.07;44.56;98495.72;5004401;28;20045;-84
2022/07/12 08:04:07;;;;;;;5.40;2.95;;;;;;;25.65;43.91;98491.63;5020655;28;20033;-83
2022/07/12 08:06:32;;;;;;;7.30;3.13;;;;;;;26.27;43.19;98487.94;5026545;28;20517;-84
2022/07/12 08:08:57;;;;;;;5.03;2.83;;;;;;;27.00;42.45;98491.81;5023432;28;20030;-83
2022/07/12 08:11:23;;;;;;;7.47;3.08;;;;;;;26.99;41.77;98493.78;5019097;28;20022;-84
2022/07/12 08:13:48;;;;;;;6.13;2.95;;;;;;;27.91;39.37;98488.66;5017029;28;20041;-84
2022/07/12 08:16:14;;;;;;;5.25;2.85;;;;;;;28.88;37.39;98493.28;5019168;28;20026;-81
2022/07/12 08:18:39;;;;;;;5.53;3.25;;;;;;;31.25;33.96;98502.19;5018083;28;20034;-80
2022/07/12 08:21:06;;;;;;;4.25;2.67;;;;;;;31.21;33.29;98494.94;5020294;28;20025;-80
2022/07/12 08:23:31;;;;;;;6.80;2.67;;;;;;;31.45;32.80;98499.53;5022168;28;20044;-81
2022/07/12 08:25:56;;;;;;;3.70;2.33;;;;;;;30.75;33.36;98489.69;5021791;28;20029;-83
2022/07/12 08:28:23;;;;;;;5.78;2.65;;;;;;;30.15;34.14;98493.72;5006608;28;20036;-80
2022/07/12 08:30:48;;;;;;;4.50;2.70;;;;;;;28.57;36.21;98492.03;5021445;28;20062;-82
2022/07/12 08:33:14;;;;;;;6.13;3.03;;;;;;;27.16;38.96;98474.66;5020793;28;20036;-82
2022/07/12 08:35:39;;;;;;;4.25;2.63;;;;;;;27.41;38.90;98487.63;5018822;28;20034;-80
2022/07/12 08:38:05;;;;;;;8.73;3.10;;;;;;;28.43;37.83;98483.56;5004436;28;20041;-82
2022/07/12 08:40:30;;;;;;;6.13;2.85;;;;;;;29.44;35.00;98490.38;5023306;28;20049;-82
2022/07/12 08:43:00;;;;;;;15.82;2.53;;;;;;;29.01;35.10;98494.44;5016028;28;20482;-82
2022/07/12 08:45:25;;;;;;;7.55;3.13;;;;;;;28.32;36.94;98486.38;5015133;28;20120;-80
2022/07/12 08:47:51;;;;;;;3.95;2.60;;;;;;;28.19;37.21;98485.16;5013637;28;20137;-79
2022/07/12 08:50:22;;;;;;;4.95;2.72;;;;;;;27.71;37.70;98472.53;5013330;28;20117;-74
2022/07/12 08:52:50;;;;;;;4.38;2.10;;;;;;;27.28;35.55;98477.94;5013677;28;20506;-78
2022/07/12 08:55:17;;;;;;;3.30;2.47;;;;;;;27.40;36.06;98480.41;5013528;28;20017;-76
2022/07/12 08:57:43;;;;;;;3.42;2.53;;;;;;;26.11;38.83;98464.91;4995902;28;20430;-78
2022/07/12 09:00:09;;;;;;;3.28;2.58;;;;;;;25.85;40.08;98465.00;5014660;28;20076;-78
2022/07/12 09:02:45;;;;;;;4.32;2.58;;;;;;;26.74;39.28;98464.69;5013399;28;20026;-78
2022/07/12 09:05:11;;;;;;;5.45;2.55;;;;;;;25.22;39.94;98467.78;5014009;28;20032;-83
2022/07/12 09:07:37;;;;;;;5.28;2.33;;;;;;;25.53;38.48;98465.44;5016039;28;20117;-80
2022/07/12 09:10:04;;;;;;;3.90;2.40;;;;;;;26.11;38.50;98464.91;5013700;28;20045;-79
2022/07/12 09:12:30;;;;;;;3.65;2.30;;;;;;;25.00;38.92;98464.69;5016012;28;20030;-80
2022/07/12 09:15:09;;;;;;;3.95;2.20;;;;;;;24.69;41.38;98462.19;5003151;28;20056;-80
2022/07/12 09:17:35;;;;;;;3.92;2.40;;;;;;;24.67;42.08;98455.38;4994520;28;20025;-79
2022/07/12 09:20:00;;;;;;;5.90;2.70;;;;;;;25.50;40.33;98460.59;4994257;28;20042;-80
2022/07/12 09:22:26;;;;;;;3.08;2.10;;;;;;;25.77;39.44;98460.53;5002314;28;20026;-80
2022/07/12 09:24:51;;;;;;;4.60;2.67;;;;;;;26.29;38.27;98454.69;4994911;28;20483;-79
2022/07/12 09:27:24;;;;;;;4.53;2.35;;;;;;;27.20;37.04;98453.78;4994887;28;20034;-80
2022/07/12 09:29:50;;;;;;;5.75;2.50;;;;;;;27.82;36.08;98473.34;4993387;28;20037;-79
2022/07/12 09:37:46;;;;;;;;;;;;;;;26.78;38.04;98453.50;4994646;28;20040;-77
2022/07/12 09:40:12;;;;;;;4.93;2.33;;;;;;;26.12;37.26;98455.31;5009657;28;19972;-78
2022/07/12 09:42:40;;;;;;;2.97;2.38;;;;;;;25.41;38.78;98451.66;5011364;28;20443;-77
2022/07/12 09:45:07;;;;;;;4.82;2.40;;;;;;;25.94;37.89;98446.69;5011521;28;20058;-77
2022/07/12 09:47:33;;;;;;;2.78;2.22;;;;;;;25.88;37.77;98450.22;5010746;28;20044;-79
2022/07/12 09:49:59;;;;;;;6.63;2.45;;;;;;;25.96;38.83;98454.72;5009882;28;20030;-78
2022/07/12 09:52:26;;;;;;;3.45;2.30;;;;;;;26.07;38.56;98450.84;5009906;28;20055;-79
2022/07/12 09:54:53;;;;;;;4.40;2.17;;;;;;;26.17;37.36;98457.78;5009912;28;20076;-79
2022/07/12 09:57:23;;;;;;;4.32;2.60;;;;;;;26.16;37.43;98450.53;5009480;28;20024;-77
2022/07/12 09:59:50;;;;;;;3.25;2.20;;;;;;;26.84;36.05;98447.16;4991642;28;20022;-79
2022/07/12 10:02:16;;;;;;;5.53;2.40;;;;;;;27.04;36.30;98450.47;5009950;28;20032;-79
2022/07/12 10:04:42;;;;;;;3.70;2.13;;;;;;;26.63;36.15;98452.56;5016079;28;20033;-80
2022/07/12 10:07:08;;;;;;;2.45;1.98;;;;;;;25.99;35.78;98453.97;5017480;28;20030;-81
2022/07/12 10:09:36;;;;;;;5.95;2.28;;;;;;;26.18;36.37;98448.19;5016469;28;20036;-80
2022/07/12 10:12:02;;;;;;;2.70;2.00;;;;;;;25.88;35.95;98439.00;5011396;28;20749;-80
2022/07/12 10:14:28;;;;;;;2.50;1.90;;;;;;;26.10;34.89;98441.66;5013053;28;20037;-79
2022/07/12 10:16:55;;;;;;;2.17;1.80;;;;;;;26.95;33.80;98442.41;5014234;28;20034;-77
2022/07/12 10:19:32;;;;;;;2.90;1.90;;;;;;;27.74;33.14;98443.59;5010392;28;20022;-77
2022/07/12 10:22:00;;;;;;;2.50;1.95;;;;;;;27.70;34.00;98443.59;5007909;28;20160;-78
2022/07/12 10:24:48;;;;;;;2.70;2.08;;;;;;;27.74;33.51;98440.78;5009366;28;20034;-76
2022/07/12 10:27:14;;;;;;;4.93;3.00;;;;;;;28.01;33.01;98436.44;5008497;28;20088;-78
2022/07/12 10:29:43;;;;;;;4.80;2.00;;;;;;;27.14;34.96;98432.88;5008462;28;20427;-79
2022/07/12 10:32:34;;;;;;;2.85;2.03;;;;;;;26.59;36.47;98430.06;5010140;28;20033;-78
2022/07/12 10:35:05;;;;;;;2.85;2.20;;;;;;;26.34;36.08;98422.66;5008075;28;20052;-75
2022/07/12 10:37:32;;;;;;;3.47;2.03;;;;;;;26.90;35.70;98416.69;5008452;28;20057;-79
2022/07/12 10:40:10;;;;;;;6.07;2.30;;;;;;;27.32;35.50;98414.09;5007857;28;20022;-79
2022/07/12 10:42:36;;;;;;;3.22;2.20;;;;;;;27.32;34.80;98416.91;5008351;28;20029;-78
2022/07/12 10:45:15;;;;;;;3.15;1.98;;;;;;;27.84;34.75;98412.72;5009293;28;20037;-79
2022/07/12 10:47:54;;;;;;;2.55;1.80;;;;;;;28.09;35.25;98404.34;5008734;28;20059;-79
2022/07/12 10:50:39;;;;;;;2.90;2.00;;;;;;;27.18;34.34;98400.00;5010095;28;20022;-78
2022/07/12 10:53:25;;;;;;;;;;;;;;;26.08;36.43;98395.56;5010586;28;20076;-78
2022/07/12 10:56:11;;;;;;;7.75;2.22;;;;;;;26.52;36.31;98399.16;4994276;28;19925;-80
2022/07/12 10:58:38;;;;;;;2.95;2.10;;;;;;;26.57;36.45;98392.38;5011467;28;20164;-78
2022/07/12 11:01:08;;;;;;;2.72;1.92;;;;;;;26.91;36.58;98393.03;5010831;28;20034;-79
2022/07/12 11:03:42;;;;;;;3.22;2.03;;;;;;;27.62;35.46;98385.72;5003258;28;20044;-77
2022/07/12 11:06:10;;;;;;;6.33;2.87;;;;;;;27.78;34.45;98393.81;5018310;28;20487;-79
2022/07/12 11:09:04;;;;;;;4.65;2.00;;;;;;;28.29;33.40;98397.09;5021940;28;20034;-80
2022/07/12 11:11:34;;;;;;;3.25;1.90;;;;;;;28.54;33.04;98395.09;5016906;28;20148;-78
2022/07/12 11:14:01;;;;;;;5.10;1.88;;;;;;;28.29;33.90;98397.09;5008627;28;20846;-77
2022/07/12 11:16:27;;;;;;;4.50;2.30;;;;;;;28.32;33.17;98385.03;5008263;28;20466;-78
2022/07/12 11:18:55;;;;;;;4.63;2.35;;;;;;;27.93;34.02;98382.19;4991666;28;20042;-77
2022/07/12 11:21:21;;;;;;;4.45;2.28;;;;;;;27.56;34.91;98370.47;5008231;28;20025;-77
2022/07/12 11:23:47;;;;;;;3.15;1.95;;;;;;;27.04;35.91;98366.19;5008767;28;20045;-78
2022/07/12 11:26:13;;;;;;;4.93;2.40;;;;;;;26.97;35.71;98366.19;5009998;28;20121;-79
2022/07/12 11:28:41;;;;;;;3.85;2.30;;;;;;;27.26;36.26;98367.09;5011863;28;20501;-80
2022/07/12 11:31:15;;;;;;;3.35;2.40;;;;;;;27.77;35.63;98358.44;5013629;28;20030;-75
2022/07/12 11:33:46;;;;;;;3.10;2.20;;;;;;;27.21;35.30;98357.06;5012232;28;20076;-80
2022/07/12 11:36:13;;;;;;;4.57;2.30;;;;;;;27.20;35.86;98354.63;5014574;28;20030;-78
2022/07/12 11:38:40;;;;;;;4.03;2.45;;;;;;;27.20;35.84;98347.00;5014382;28;20045;-81
2022/07/12 11:41:08;;;;;;;3.88;2.63;;;;;;;27.55;35.70;98343.53;4994035;28;20637;-75
2022/07/12 11:43:36;;;;;;;3.70;2.58;;;;;;;27.57;35.95;98339.13;5009658;28;20052;-77